Time;durP1;ratioP1;P1;durP2;ratioP2;P2;SDS_P1;SDS_P2;PMS_P1;PMS_P2;Temp;Humidity;BMP_temperature;BMP_pressure;BME280_temperature;BME280_humidity;BME280_pressure;Samples;Min_cycle;Max_cycle;Signal;HPM_P1;HPM_P2
2021/09/26 00:00:23;;;;;;;29.05;21.40;;;17.70;99.90;;;;;;5072382;28;20040;-77
2021/09/26 00:02:49;;;;;;;34.28;22.48;;;17.60;99.90;;;;;;5070857;28;20025;-77
2021/09/26 00:05:15;;;;;;;32.28;22.70;;;17.70;99.90;;;;;;5073151;28;20063;-77
2021/09/26 00:07:41;;;;;;;29.80;20.75;;;17.70;99.90;;;;;;5078412;28;20028;-77
2021/09/26 00:10:10;;;;;;;36.38;22.75;;;17.60;99.90;;;;;;5072394;28;20614;-77
2021/09/26 00:12:36;;;;;;;30.23;21.83;;;17.60;99.90;;;;;;5072088;28;20111;-77
2021/09/26 00:15:04;;;;;;;29.30;20.48;;;17.60;99.90;;;;;;5073689;28;20099;-77
2021/09/26 00:17:29;;;;;;;28.63;20.60;;;17.50;99.90;;;;;;5075761;28;20025;-77
2021/09/26 00:19:57;;;;;;;27.55;19.80;;;17.50;99.90;;;;;;5071031;28;20108;-77
2021/09/26 00:22:23;;;;;;;31.08;20.27;;;17.60;99.90;;;;;;5070552;28;20022;-76
2021/09/26 00:24:48;;;;;;;20.90;16.70;;;17.60;99.90;;;;;;5075140;28;20039;-77
2021/09/26 00:27:14;;;;;;;24.80;17.42;;;17.60;99.90;;;;;;5076408;28;20037;-77
2021/09/26 00:29:40;;;;;;;23.98;17.30;;;17.60;99.90;;;;;;5074903;28;20028;-77
2021/09/26 00:32:07;;;;;;;26.20;17.67;;;17.50;99.90;;;;;;5071528;28;20028;-77
2021/09/26 00:34:33;;;;;;;27.45;19.40;;;17.60;99.90;;;;;;5079024;28;20024;-77
2021/09/26 00:36:59;;;;;;;33.05;21.80;;;17.50;99.90;;;;;;5077976;28;20120;-77
2021/09/26 00:39:24;;;;;;;29.90;20.48;;;17.50;99.90;;;;;;5070676;28;20012;-78
2021/09/26 00:41:50;;;;;;;28.27;19.90;;;17.50;99.90;;;;;;5082477;28;20032;-78
2021/09/26 00:44:16;;;;;;;33.08;22.27;;;17.50;99.90;;;;;;5078900;28;20016;-78
2021/09/26 00:46:42;;;;;;;31.95;21.38;;;17.50;99.90;;;;;;5084729;28;20037;-77
2021/09/26 00:49:08;;;;;;;28.85;20.52;;;17.40;99.90;;;;;;5080299;28;20032;-77
2021/09/26 00:51:34;;;;;;;29.58;20.27;;;17.50;99.90;;;;;;5080170;28;20028;-77
2021/09/26 00:53:59;;;;;;;32.47;21.27;;;17.50;99.90;;;;;;5076011;28;20047;-77
2021/09/26 00:56:25;;;;;;;28.92;21.25;;;17.60;99.90;;;;;;5074275;28;20032;-78
2021/09/26 00:58:51;;;;;;;28.25;21.27;;;17.50;99.90;;;;;;5074984;28;20021;-78
2021/09/26 01:01:17;;;;;;;26.45;20.23;;;17.50;99.90;;;;;;5082188;28;20047;-78
2021/09/26 01:03:43;;;;;;;27.60;19.80;;;17.50;99.90;;;;;;5080642;28;20472;-78
2021/09/26 01:06:41;;;;;;;30.90;21.00;;;17.50;99.90;;;;;;5078356;28;20496;-78
2021/09/26 01:09:22;;;;;;;29.60;20.90;;;17.60;99.90;;;;;;5081116;28;20020;-78
2021/09/26 01:12:04;;;;;;;29.88;22.08;;;17.60;99.90;;;;;;5071029;28;20505;-77
2021/09/26 01:14:38;;;;;;;28.50;21.73;;;17.60;99.90;;;;;;5079692;28;20016;-77
2021/09/26 01:17:29;;;;;;;37.78;24.30;;;17.60;99.90;;;;;;5079394;28;20032;-77
2021/09/26 01:20:39;;;;;;;34.42;23.02;;;17.60;99.90;;;;;;5078399;28;20027;-77
2021/09/26 01:23:05;;;;;;;30.00;21.20;;;17.60;99.90;;;;;;5076896;28;20020;-77
2021/09/26 01:25:40;;;;;;;34.95;22.27;;;17.60;99.90;;;;;;5077952;28;20042;-77
2021/09/26 01:28:11;;;;;;;28.48;20.60;;;17.60;99.90;;;;;;5075365;28;20035;-77
2021/09/26 01:31:08;;;;;;;33.20;23.65;;;17.60;99.90;;;;;;5075172;28;20377;-76
2021/09/26 01:34:18;;;;;;;31.95;21.42;;;17.60;99.90;;;;;;5067449;28;20036;-76
2021/09/26 01:36:50;;;;;;;35.55;22.65;;;17.50;99.90;;;;;;5068636;28;20638;-76
2021/09/26 01:39:33;;;;;;;31.38;20.95;;;17.50;99.90;;;;;;5073929;28;20115;-75
2021/09/26 01:42:01;;;;;;;;;;;17.50;99.90;;;;;;5067989;28;20055;-76
2021/09/26 01:44:36;;;;;;;28.63;21.30;;;17.50;99.90;;;;;;5068920;28;19985;-77
2021/09/26 01:47:06;;;;;;;33.10;23.40;;;17.50;99.90;;;;;;5072378;28;20056;-76
2021/09/26 01:49:39;;;;;;;32.47;22.92;;;17.50;99.90;;;;;;5072958;28;20024;-77
2021/09/26 01:52:09;;;;;;;28.75;20.67;;;17.40;99.90;;;;;;5071833;28;20032;-77
2021/09/26 01:54:36;;;;;;;32.60;22.08;;;17.40;99.90;;;;;;5070682;28;20036;-77
2021/09/26 01:57:03;;;;;;;31.13;22.23;;;17.40;99.90;;;;;;5074589;28;20032;-77
2021/09/26 01:59:29;;;;;;;26.23;19.60;;;17.40;99.90;;;;;;5071375;28;20024;-78
2021/09/26 02:01:56;;;;;;;25.88;20.25;;;17.50;99.90;;;;;;5074347;28;20040;-77
2021/09/26 02:04:25;;;;;;;33.97;22.02;;;17.50;99.90;;;;;;5070698;28;20024;-77
2021/09/26 02:06:52;;;;;;;27.35;20.50;;;17.50;99.90;;;;;;5071996;28;20512;-78
2021/09/26 02:09:19;;;;;;;26.17;19.65;;;17.50;99.90;;;;;;5075371;28;20150;-77
2021/09/26 02:11:45;;;;;;;26.92;17.98;;;17.50;99.90;;;;;;5078964;28;20031;-77
2021/09/26 02:14:13;;;;;;;22.88;17.55;;;17.50;99.90;;;;;;5074547;28;20032;-77
2021/09/26 02:16:39;;;;;;;24.13;18.52;;;17.50;99.90;;;;;;5074909;28;20039;-77
2021/09/26 02:19:06;;;;;;;26.58;18.73;;;17.50;99.90;;;;;;5079833;28;20028;-77
2021/09/26 02:21:32;;;;;;;24.10;17.90;;;17.60;99.90;;;;;;5076388;28;20039;-77
2021/09/26 02:23:59;;;;;;;25.80;19.02;;;17.50;99.90;;;;;;5072911;28;20034;-77
2021/09/26 02:26:26;;;;;;;24.60;18.15;;;17.60;99.90;;;;;;5072000;28;20025;-77
2021/09/26 02:28:52;;;;;;;23.83;17.00;;;17.50;99.90;;;;;;5074607;28;20058;-77
2021/09/26 02:31:17;;;;;;;25.23;18.55;;;17.50;99.90;;;;;;5075698;28;20020;-77
2021/09/26 02:33:45;;;;;;;28.30;19.13;;;17.50;99.90;;;;;;5080344;28;20031;-77
2021/09/26 02:36:12;;;;;;;23.05;17.45;;;17.50;99.90;;;;;;5076096;28;20392;-77
2021/09/26 02:38:39;;;;;;;27.30;17.67;;;17.50;99.90;;;;;;5077941;28;20020;-77
2021/09/26 02:41:24;;;;;;;25.90;19.55;;;17.50;99.90;;;;;;5084138;28;20068;-77
2021/09/26 02:44:12;;;;;;;25.15;16.75;;;17.50;99.90;;;;;;5077612;28;20016;-77
2021/09/26 02:46:42;;;;;;;25.65;16.85;;;17.50;99.90;;;;;;5072863;28;20033;-77
2021/09/26 02:49:08;;;;;;;25.02;16.85;;;17.50;99.90;;;;;;5075280;28;20357;-77
2021/09/26 02:51:34;;;;;;;24.77;17.75;;;17.50;99.90;;;;;;5073617;28;20012;-77
2021/09/26 02:54:01;;;;;;;23.48;16.40;;;17.50;99.90;;;;;;5075604;28;20028;-77
2021/09/26 02:56:27;;;;;;;25.05;17.52;;;17.50;99.90;;;;;;5067754;28;20028;-77
2021/09/26 02:58:54;;;;;;;22.17;16.55;;;17.60;99.90;;;;;;5072096;28;20032;-77
2021/09/26 03:01:21;;;;;;;20.90;15.85;;;17.60;99.90;;;;;;5071887;28;20036;-77
2021/09/26 03:03:47;;;;;;;21.80;16.27;;;17.60;99.90;;;;;;5070666;28;20104;-77
2021/09/26 03:06:13;;;;;;;20.33;16.73;;;17.60;99.90;;;;;;5077033;28;20451;-77
2021/09/26 03:08:38;;;;;;;25.92;16.83;;;17.60;99.90;;;;;;5066338;28;20082;-77
2021/09/26 03:11:04;;;;;;;21.63;15.38;;;17.60;99.90;;;;;;5078978;28;20029;-77
2021/09/26 03:13:30;;;;;;;21.77;16.92;;;17.50;99.90;;;;;;5073942;28;20353;-77
2021/09/26 03:15:56;;;;;;;24.02;16.83;;;17.50;99.90;;;;;;5077868;28;20036;-77
2021/09/26 03:18:23;;;;;;;26.73;16.83;;;17.60;99.90;;;;;;5073260;28;20017;-75
2021/09/26 03:20:49;;;;;;;30.08;18.10;;;17.60;99.90;;;;;;5078102;28;20123;-75
2021/09/26 03:23:15;;;;;;;25.17;17.73;;;17.60;99.90;;;;;;5074357;28;20040;-75
2021/09/26 03:25:41;;;;;;;34.08;19.90;;;17.50;99.90;;;;;;5072363;28;20028;-76
2021/09/26 03:28:07;;;;;;;29.23;17.85;;;17.50;99.90;;;;;;5067554;28;20032;-75
2021/09/26 03:30:33;;;;;;;26.05;18.98;;;17.60;99.90;;;;;;5070200;28;20456;-76
2021/09/26 03:32:59;;;;;;;26.65;17.58;;;17.60;99.90;;;;;;5068593;28;20024;-76
2021/09/26 03:35:25;;;;;;;23.95;16.67;;;17.70;99.90;;;;;;5077083;28;20043;-76
2021/09/26 03:37:51;;;;;;;28.10;17.95;;;17.60;99.90;;;;;;5075875;28;20013;-76
2021/09/26 03:40:17;;;;;;;27.88;19.48;;;17.60;99.90;;;;;;5075903;28;20028;-77
2021/09/26 03:42:43;;;;;;;37.22;23.60;;;17.70;99.90;;;;;;5073467;28;20112;-76
2021/09/26 03:45:10;;;;;;;31.17;19.98;;;17.70;99.90;;;;;;5067169;28;20044;-77
2021/09/26 03:47:36;;;;;;;43.17;22.85;;;17.60;99.90;;;;;;5076652;28;20077;-77
2021/09/26 03:50:05;;;;;;;34.00;20.92;;;17.60;99.90;;;;;;5075334;28;20027;-76
2021/09/26 03:52:31;;;;;;;42.40;21.73;;;17.50;99.90;;;;;;5072169;28;20117;-75
2021/09/26 03:54:58;;;;;;;30.13;20.75;;;17.60;99.90;;;;;;5075264;28;20081;-76
2021/09/26 03:57:23;;;;;;;31.63;21.48;;;17.60;99.90;;;;;;5072838;28;20020;-77
2021/09/26 03:59:49;;;;;;;33.60;20.98;;;17.70;99.90;;;;;;5075700;28;20495;-77
2021/09/26 04:02:15;;;;;;;32.75;20.75;;;17.70;99.90;;;;;;5075492;28;20037;-77
2021/09/26 04:04:41;;;;;;;32.20;21.63;;;17.70;99.90;;;;;;5072393;28;20024;-77
2021/09/26 04:07:07;;;;;;;26.38;18.65;;;17.70;99.90;;;;;;5071089;28;20070;-77
2021/09/26 04:09:33;;;;;;;33.40;21.27;;;17.60;99.90;;;;;;5070738;28;20040;-77
2021/09/26 04:11:58;;;;;;;29.65;20.83;;;17.60;99.90;;;;;;5072178;28;20472;-77
2021/09/26 04:14:24;;;;;;;28.50;20.52;;;17.70;99.90;;;;;;5067920;28;20025;-77
2021/09/26 04:16:52;;;;;;;37.95;23.63;;;17.70;99.90;;;;;;5064061;28;21690;-76
2021/09/26 04:19:18;;;;;;;30.88;22.30;;;17.70;99.90;;;;;;5070675;28;20082;-77
2021/09/26 04:21:44;;;;;;;29.85;21.50;;;17.70;99.90;;;;;;5074100;28;20093;-76
2021/09/26 04:24:11;;;;;;;32.15;23.30;;;17.70;99.90;;;;;;5076608;28;20527;-77
2021/09/26 04:26:37;;;;;;;32.90;23.25;;;17.70;99.90;;;;;;5072634;28;20028;-77
2021/09/26 04:29:03;;;;;;;36.67;24.38;;;17.70;99.90;;;;;;5075449;28;20036;-77
2021/09/26 04:31:28;;;;;;;42.28;26.35;;;17.70;99.90;;;;;;5076293;28;20027;-80
2021/09/26 04:33:54;;;;;;;40.88;26.27;;;17.70;99.90;;;;;;5070132;28;20100;-76
2021/09/26 04:36:20;;;;;;;30.70;22.38;;;17.70;99.90;;;;;;5069076;28;20096;-76
2021/09/26 04:38:46;;;;;;;37.80;25.88;;;17.70;99.90;;;;;;5034243;28;20036;-76
2021/09/26 04:41:11;;;;;;;34.70;23.88;;;17.70;99.90;;;;;;5076107;28;20041;-77
2021/09/26 04:43:37;;;;;;;33.67;23.65;;;17.70;99.90;;;;;;5073941;28;20487;-76
2021/09/26 04:46:03;;;;;;;39.20;26.08;;;17.80;99.90;;;;;;5075079;28;20452;-77
2021/09/26 04:48:29;;;;;;;37.85;26.25;;;17.80;99.90;;;;;;5077989;28;20028;-77
2021/09/26 04:50:55;;;;;;;30.90;23.27;;;17.80;99.90;;;;;;5075555;28;20031;-77
2021/09/26 04:53:21;;;;;;;38.03;26.92;;;17.80;99.90;;;;;;5067381;28;20136;-77
2021/09/26 04:55:46;;;;;;;27.63;21.13;;;17.70;99.90;;;;;;5076237;28;20064;-77
2021/09/26 04:58:12;;;;;;;28.38;21.52;;;17.80;99.90;;;;;;5070198;28;20137;-77
2021/09/26 05:00:38;;;;;;;30.33;22.20;;;17.80;99.90;;;;;;5073180;28;20045;-76
2021/09/26 05:03:04;;;;;;;33.63;22.80;;;17.80;99.90;;;;;;5073635;28;20378;-77
2021/09/26 05:05:30;;;;;;;30.73;22.77;;;17.80;99.90;;;;;;5070141;28;20027;-77
2021/09/26 05:07:56;;;;;;;30.48;21.48;;;17.80;99.90;;;;;;5070393;28;20021;-76
2021/09/26 05:10:22;;;;;;;38.90;23.58;;;17.80;99.90;;;;;;5072554;28;20376;-77
2021/09/26 05:12:48;;;;;;;33.90;23.70;;;17.80;99.90;;;;;;5073517;28;20043;-77
2021/09/26 05:15:14;;;;;;;35.50;25.13;;;17.80;99.90;;;;;;5075407;28;20017;-77
2021/09/26 05:17:40;;;;;;;36.05;26.45;;;17.80;99.90;;;;;;5075753;28;20230;-77
2021/09/26 05:20:07;;;;;;;28.60;21.38;;;17.80;99.90;;;;;;5076452;28;20032;-77
2021/09/26 05:22:33;;;;;;;29.98;21.73;;;17.90;99.90;;;;;;5071174;28;20071;-77
2021/09/26 05:24:59;;;;;;;29.35;21.90;;;17.90;99.90;;;;;;5079852;28;20032;-77
2021/09/26 05:27:24;;;;;;;34.58;24.45;;;17.90;99.90;;;;;;5070761;28;20040;-77
2021/09/26 05:29:50;;;;;;;33.45;23.08;;;17.90;99.90;;;;;;5069286;28;20025;-77
2021/09/26 05:32:16;;;;;;;30.65;22.27;;;17.90;99.90;;;;;;5075229;28;20059;-77
2021/09/26 05:34:44;;;;;;;27.33;21.23;;;17.90;99.90;;;;;;5081491;28;20228;-77
2021/09/26 05:37:10;;;;;;;29.48;21.20;;;17.90;99.90;;;;;;5072231;28;20104;-77
2021/09/26 05:39:35;;;;;;;41.78;24.58;;;17.80;99.90;;;;;;5073324;28;20115;-77
2021/09/26 05:42:06;;;;;;;26.92;20.88;;;17.70;99.90;;;;;;5077209;28;20118;-77
2021/09/26 05:44:32;;;;;;;27.77;20.52;;;17.70;99.90;;;;;;5073665;28;20021;-77
2021/09/26 05:46:58;;;;;;;36.47;24.05;;;17.80;99.90;;;;;;5078991;28;20103;-77
2021/09/26 05:49:24;;;;;;;30.70;21.80;;;17.90;99.90;;;;;;5077055;28;20096;-77
2021/09/26 05:51:49;;;;;;;32.40;22.77;;;17.90;99.90;;;;;;5078196;28;20035;-77
2021/09/26 05:54:15;;;;;;;30.88;21.60;;;17.90;99.90;;;;;;5076868;28;20077;-77
2021/09/26 05:56:41;;;;;;;26.60;20.35;;;17.90;99.90;;;;;;5073960;28;20033;-77
2021/09/26 05:59:06;;;;;;;24.80;18.80;;;17.80;99.90;;;;;;5070838;28;20029;-77
2021/09/26 06:01:32;;;;;;;22.52;17.83;;;17.90;99.90;;;;;;5071845;28;20114;-77
2021/09/26 06:03:58;;;;;;;29.58;21.55;;;17.90;99.90;;;;;;5075197;28;20052;-77
2021/09/26 06:06:23;;;;;;;32.88;22.15;;;17.90;99.90;;;;;;5077609;28;20031;-76
2021/09/26 06:08:49;;;;;;;41.75;25.83;;;17.90;99.90;;;;;;5075126;28;20124;-76
2021/09/26 06:11:15;;;;;;;30.70;22.42;;;17.90;99.90;;;;;;5077708;28;20082;-76
2021/09/26 06:13:40;;;;;;;34.35;24.65;;;17.90;99.90;;;;;;5081034;28;20024;-77
2021/09/26 06:16:06;;;;;;;35.15;22.30;;;17.90;99.90;;;;;;5076261;28;20040;-77
2021/09/26 06:18:32;;;;;;;25.17;18.27;;;17.90;99.90;;;;;;5074105;28;20100;-77
2021/09/26 06:20:58;;;;;;;23.13;18.48;;;17.90;99.90;;;;;;5075965;28;20043;-77
2021/09/26 06:23:23;;;;;;;27.25;19.85;;;17.90;99.90;;;;;;5070861;28;20089;-77
2021/09/26 06:25:49;;;;;;;23.65;19.70;;;17.90;99.90;;;;;;5072032;28;20047;-77
2021/09/26 06:28:15;;;;;;;28.15;20.17;;;17.90;99.90;;;;;;5078127;28;20024;-76
2021/09/26 06:30:41;;;;;;;32.15;22.40;;;17.90;99.90;;;;;;5077449;28;20158;-77
2021/09/26 06:33:07;;;;;;;19.23;15.75;;;18.00;99.90;;;;;;5075824;28;20016;-77
2021/09/26 06:35:33;;;;;;;26.33;20.13;;;18.00;99.90;;;;;;5074846;28;20107;-77
2021/09/26 06:38:00;;;;;;;34.40;21.83;;;17.90;99.90;;;;;;5078964;28;20024;-77
2021/09/26 06:40:26;;;;;;;22.95;18.13;;;17.90;99.90;;;;;;5072877;28;20036;-77
2021/09/26 06:42:52;;;;;;;24.88;17.35;;;17.90;99.90;;;;;;5062802;28;20392;-77
2021/09/26 06:45:18;;;;;;;30.58;21.33;;;17.90;99.90;;;;;;5043368;28;20024;-77
2021/09/26 06:47:43;;;;;;;32.63;24.65;;;17.90;99.90;;;;;;5066574;28;20021;-76
2021/09/26 06:50:10;;;;;;;29.73;19.73;;;18.00;99.90;;;;;;5074635;28;20037;-77
2021/09/26 06:52:37;;;;;;;24.75;19.00;;;18.00;99.90;;;;;;5075218;28;20013;-77
2021/09/26 06:55:04;;;;;;;32.60;21.50;;;18.00;99.90;;;;;;5078571;28;20020;-77
2021/09/26 06:57:29;;;;;;;35.83;23.75;;;18.00;99.90;;;;;;5071001;28;20119;-77
2021/09/26 06:59:55;;;;;;;37.15;23.63;;;18.00;99.90;;;;;;5075285;28;20151;-77
2021/09/26 07:02:22;;;;;;;34.58;22.75;;;18.10;99.90;;;;;;5070282;28;20024;-77
2021/09/26 07:04:48;;;;;;;28.23;20.38;;;18.10;99.90;;;;;;5072475;28;20021;-77
2021/09/26 07:07:15;;;;;;;30.83;22.67;;;18.20;99.90;;;;;;5074362;28;20384;-77
2021/09/26 07:09:42;;;;;;;29.67;21.00;;;18.20;99.90;;;;;;5076263;28;20047;-77
2021/09/26 07:12:08;;;;;;;28.02;20.13;;;18.20;99.90;;;;;;5069151;28;20381;-77
2021/09/26 07:14:34;;;;;;;27.48;19.73;;;18.30;99.90;;;;;;5081168;28;20065;-77
2021/09/26 07:17:00;;;;;;;20.77;17.20;;;18.30;99.90;;;;;;5072072;28;20020;-77
2021/09/26 07:19:25;;;;;;;24.30;17.30;;;18.30;99.90;;;;;;5072938;28;20052;-77
2021/09/26 07:21:51;;;;;;;21.02;16.15;;;18.40;99.90;;;;;;5072431;28;20060;-77
2021/09/26 07:24:17;;;;;;;27.40;18.13;;;18.40;99.90;;;;;;5066315;28;20032;-77
2021/09/26 07:26:42;;;;;;;22.15;16.52;;;18.50;99.90;;;;;;5071364;28;20070;-77
2021/09/26 07:29:08;;;;;;;20.00;15.35;;;18.50;99.90;;;;;;5069726;28;20028;-77
2021/09/26 07:31:34;;;;;;;20.35;14.40;;;18.60;99.90;;;;;;5070806;28;20070;-77
2021/09/26 07:34:00;;;;;;;19.65;13.20;;;18.60;99.90;;;;;;5074278;28;20029;-77
2021/09/26 07:36:25;;;;;;;19.65;13.60;;;18.60;99.90;;;;;;5064422;28;20028;-77
2021/09/26 07:38:51;;;;;;;15.98;12.73;;;18.70;99.90;;;;;;5075908;28;20134;-77
2021/09/26 07:41:17;;;;;;;17.33;13.30;;;18.80;99.90;;;;;;5068906;28;20039;-77
2021/09/26 07:43:42;;;;;;;20.15;14.25;;;18.80;99.90;;;;;;5074985;28;20032;-78
2021/09/26 07:46:08;;;;;;;17.50;14.57;;;18.90;99.90;;;;;;5070493;28;20055;-77
2021/09/26 07:48:34;;;;;;;17.63;14.38;;;19.00;99.90;;;;;;5070016;28;20016;-77
2021/09/26 07:50:59;;;;;;;18.08;13.50;;;19.10;99.90;;;;;;5072281;28;20468;-77
2021/09/26 07:53:25;;;;;;;17.67;13.35;;;19.10;99.90;;;;;;5079428;28;20074;-78
2021/09/26 07:55:51;;;;;;;19.73;13.73;;;19.10;99.90;;;;;;5062127;28;20109;-77
2021/09/26 07:58:17;;;;;;;13.43;11.63;;;19.20;99.90;;;;;;5063907;28;20028;-77
2021/09/26 08:00:43;;;;;;;17.15;12.43;;;19.20;99.90;;;;;;5070472;28;20432;-77
2021/09/26 08:03:09;;;;;;;17.55;12.93;;;19.20;99.90;;;;;;5064653;28;20488;-77
2021/09/26 08:05:35;;;;;;;17.77;12.10;;;19.30;99.90;;;;;;5071671;28;20032;-78
2021/09/26 08:08:00;;;;;;;15.73;11.60;;;19.40;99.90;;;;;;5062376;28;20020;-77
2021/09/26 08:10:26;;;;;;;16.63;12.65;;;19.40;99.90;;;;;;5070186;28;20016;-77
2021/09/26 08:12:51;;;;;;;17.77;13.50;;;19.40;99.90;;;;;;5075243;28;20024;-76
2021/09/26 08:15:18;;;;;;;18.20;12.40;;;19.40;99.90;;;;;;5079234;28;20051;-78
2021/09/26 08:17:43;;;;;;;18.85;12.90;;;19.50;99.90;;;;;;5071417;28;20072;-78
2021/09/26 08:20:10;;;;;;;18.50;12.90;;;19.60;99.90;;;;;;5067728;28;20028;-77
2021/09/26 08:22:35;;;;;;;15.70;13.43;;;19.70;99.90;;;;;;5064313;28;20025;-77
2021/09/26 08:25:03;;;;;;;18.42;12.32;;;19.80;99.90;;;;;;5064515;28;20361;-77
2021/09/26 08:27:30;;;;;;;16.73;11.90;;;19.90;99.90;;;;;;5066946;28;20036;-78
2021/09/26 08:29:55;;;;;;;13.95;11.77;;;19.90;99.90;;;;;;5069789;28;20374;-77
2021/09/26 08:32:21;;;;;;;16.45;12.40;;;20.00;99.90;;;;;;5066850;28;20028;-77
2021/09/26 08:34:47;;;;;;;14.05;11.82;;;20.00;99.90;;;;;;5071434;28;20435;-76
2021/09/26 08:37:13;;;;;;;16.23;12.77;;;20.10;99.90;;;;;;5066055;28;20643;-77
2021/09/26 08:39:38;;;;;;;16.38;12.93;;;20.10;99.90;;;;;;5067784;28;20031;-78
2021/09/26 08:42:04;;;;;;;18.00;12.77;;;20.20;99.90;;;;;;5072088;28;20052;-78
2021/09/26 08:44:30;;;;;;;15.57;12.02;;;20.20;99.90;;;;;;5070103;28;20024;-76
2021/09/26 08:46:57;;;;;;;18.23;12.60;;;20.20;99.90;;;;;;5071020;28;20055;-78
2021/09/26 08:49:23;;;;;;;15.18;11.48;;;20.20;99.90;;;;;;5072024;28;20020;-78
2021/09/26 08:51:51;;;;;;;15.35;12.60;;;20.20;99.90;;;;;;5081269;28;20028;-76
2021/09/26 08:54:17;;;;;;;15.32;11.60;;;20.30;99.90;;;;;;5076021;28;20025;-79
2021/09/26 08:56:43;;;;;;;14.23;11.38;;;20.40;99.90;;;;;;5080387;28;20085;-78
2021/09/26 08:59:10;;;;;;;21.35;12.60;;;20.40;99.90;;;;;;5073358;28;20008;-78
2021/09/26 09:01:36;;;;;;;16.17;12.00;;;20.50;99.90;;;;;;5083181;28;20051;-77
2021/09/26 09:04:02;;;;;;;18.70;12.00;;;20.50;99.90;;;;;;5077069;28;20031;-77
2021/09/26 09:06:48;;;;;;;16.98;12.23;;;20.50;99.90;;;;;;5072625;28;20025;-77
2021/09/26 09:09:21;;;;;;;16.48;11.85;;;20.50;99.90;;;;;;5073132;28;20032;-79
2021/09/26 09:12:05;;;;;;;15.80;12.73;;;20.60;99.90;;;;;;5078901;28;20028;-77
2021/09/26 09:14:54;;;;;;;15.50;12.68;;;20.50;99.90;;;;;;5078707;28;20067;-77
2021/09/26 09:17:31;;;;;;;17.50;13.18;;;20.50;99.90;;;;;;5074111;28;20120;-78
2021/09/26 09:20:15;;;;;;;16.77;12.85;;;20.60;99.90;;;;;;5074704;28;20012;-79
2021/09/26 09:22:43;;;;;;;14.55;12.73;;;20.70;99.90;;;;;;5074280;28;20388;-78
2021/09/26 09:25:28;;;;;;;16.35;12.75;;;20.80;99.90;;;;;;5075313;28;20112;-77
2021/09/26 09:27:55;;;;;;;17.10;15.02;;;20.80;99.90;;;;;;5064347;28;20040;-77
2021/09/26 09:30:36;;;;;;;16.45;13.10;;;20.90;99.90;;;;;;5070912;28;20074;-77
2021/09/26 09:33:02;;;;;;;15.90;13.20;;;21.00;99.90;;;;;;5071041;28;20484;-78
2021/09/26 09:35:35;;;;;;;16.85;13.77;;;21.10;99.90;;;;;;5076395;28;20016;-79
2021/09/26 09:38:00;;;;;;;14.73;13.15;;;21.20;99.90;;;;;;5067178;28;20512;-78
2021/09/26 09:40:26;;;;;;;17.38;12.90;;;21.30;99.90;;;;;;5063972;28;20071;-79
2021/09/26 09:42:55;;;;;;;15.18;13.52;;;21.40;99.90;;;;;;5070757;28;20031;-76
2021/09/26 09:45:31;;;;;;;19.77;13.35;;;21.60;99.90;;;;;;5057234;28;20044;-77
2021/09/26 09:47:57;;;;;;;15.20;13.65;;;21.60;99.90;;;;;;5065201;28;20060;-79
2021/09/26 09:50:44;;;;;;;15.93;14.23;;;21.80;99.90;;;;;;5068338;28;20020;-79
2021/09/26 09:53:18;;;;;;;16.60;14.13;;;21.80;99.90;;;;;;5069841;28;20393;-78
2021/09/26 09:55:44;;;;;;;16.63;14.98;;;21.80;99.90;;;;;;5071173;28;20035;-79
2021/09/26 09:58:16;;;;;;;15.98;13.50;;;21.90;99.90;;;;;;5067757;28;20032;-80
2021/09/26 10:00:55;;;;;;;;;;;22.00;99.90;;;;;;5071111;28;20472;-81
2021/09/26 10:03:49;;;;;;;16.70;15.00;;;22.00;99.90;;;;;;5065904;28;19908;-79
2021/09/26 10:06:40;;;;;;;21.23;14.43;;;22.20;99.90;;;;;;5067726;28;20124;-79
2021/09/26 10:09:14;;;;;;;16.40;14.65;;;22.30;99.90;;;;;;5062017;28;20035;-80
2021/09/26 10:11:53;;;;;;;15.75;14.25;;;22.40;99.90;;;;;;5062437;28;20151;-79
2021/09/26 10:14:20;;;;;;;17.60;15.48;;;22.60;99.90;;;;;;5067086;28;20013;-81
2021/09/26 10:16:47;;;;;;;16.65;14.50;;;22.50;99.90;;;;;;5065007;28;20073;-81
2021/09/26 10:19:13;;;;;;;17.10;15.35;;;22.50;99.90;;;;;;5049700;28;20968;-81
2021/09/26 10:21:40;;;;;;;17.23;15.43;;;22.50;99.90;;;;;;5067108;28;20037;-83
2021/09/26 10:24:07;;;;;;;18.10;15.35;;;22.60;99.90;;;;;;5055960;28;20021;-81
2021/09/26 10:26:37;;;;;;;18.15;16.25;;;22.70;99.90;;;;;;5045060;28;20021;-81
2021/09/26 10:29:06;;;;;;;22.65;15.48;;;22.80;99.90;;;;;;5068301;28;20534;-80
2021/09/26 10:31:32;;;;;;;18.17;15.90;;;22.90;99.90;;;;;;5069062;28;20012;-80
2021/09/26 10:34:04;;;;;;;17.02;15.23;;;22.90;99.90;;;;;;5062613;28;20031;-79
2021/09/26 10:36:31;;;;;;;19.70;13.88;;;22.90;99.90;;;;;;5074293;28;20119;-80
2021/09/26 10:38:59;;;;;;;16.83;14.55;;;22.90;99.90;;;;;;5066453;28;20060;-81
2021/09/26 10:41:25;;;;;;;18.40;16.23;;;23.00;99.90;;;;;;5062287;28;20119;-80
2021/09/26 10:43:52;;;;;;;20.65;16.30;;;22.80;99.90;;;;;;5072908;28;20104;-81
2021/09/26 10:46:18;;;;;;;16.73;14.98;;;22.90;99.90;;;;;;5067201;28;20048;-77
2021/09/26 10:48:56;;;;;;;19.77;15.23;;;23.00;99.90;;;;;;5066996;28;20566;-79
2021/09/26 10:51:58;;;;;;;18.67;16.27;;;23.20;99.90;;;;;;5076440;28;20036;-78
2021/09/26 10:54:37;;;;;;;17.95;15.80;;;23.30;99.90;;;;;;5021024;28;20091;-78
2021/09/26 10:57:09;;;;;;;17.10;15.30;;;23.30;99.90;;;;;;5060342;28;20035;-78
2021/09/26 10:59:40;;;;;;;20.38;16.95;;;23.30;99.90;;;;;;5082881;28;20057;-79
2021/09/26 11:02:26;;;;;;;17.23;14.55;;;23.00;99.90;;;;;;5075802;28;20040;-79
2021/09/26 11:05:00;;;;;;;17.85;16.05;;;22.90;99.90;;;;;;5077484;28;20056;-79
2021/09/26 11:07:31;;;;;;;17.85;15.30;;;22.70;99.90;;;;;;5068092;28;20389;-78
2021/09/26 11:10:05;;;;;;;16.63;14.55;;;22.90;99.90;;;;;;5076987;28;20445;-78
2021/09/26 11:12:41;;;;;;;16.00;13.70;;;23.00;99.90;;;;;;5066094;28;20025;-76
2021/09/26 11:15:10;;;;;;;14.23;12.23;;;23.10;99.90;;;;;;5071991;28;20056;-78
2021/09/26 11:17:48;;;;;;;15.32;13.10;;;23.00;99.90;;;;;;5075129;28;20032;-79
2021/09/26 11:20:33;;;;;;;15.20;11.40;;;23.00;99.90;;;;;;5075697;28;20040;-79
2021/09/26 11:23:05;;;;;;;15.32;11.32;;;23.00;99.90;;;;;;5072552;28;20440;-79
2021/09/26 11:25:55;;;;;;;15.20;12.02;;;23.00;99.90;;;;;;5072448;28;20117;-78
2021/09/26 11:28:23;;;;;;;12.70;11.40;;;22.90;99.90;;;;;;5070494;28;20028;-78
2021/09/26 11:30:49;;;;;;;15.68;11.57;;;22.90;99.90;;;;;;5080248;28;20062;-79
2021/09/26 11:33:15;;;;;;;11.90;10.70;;;22.80;99.90;;;;;;5075100;28;20024;-79
2021/09/26 11:35:41;;;;;;;15.23;11.27;;;22.90;99.90;;;;;;5075018;28;20063;-78
2021/09/26 11:38:11;;;;;;;13.18;11.77;;;22.80;99.90;;;;;;5075977;28;20059;-78
2021/09/26 11:41:09;;;;;;;12.68;11.38;;;22.80;99.90;;;;;;5073409;28;20067;-79
2021/09/26 11:43:38;;;;;;;13.35;11.95;;;22.70;99.90;;;;;;5021591;28;20209;-78
2021/09/26 11:46:16;;;;;;;12.20;11.00;;;22.70;99.90;;;;;;5070736;28;20008;-77
2021/09/26 11:48:42;;;;;;;14.57;11.75;;;22.80;99.90;;;;;;5073341;28;20025;-79
2021/09/26 11:51:12;;;;;;;15.07;12.57;;;22.80;99.90;;;;;;5073124;28;20477;-79
2021/09/26 11:53:38;;;;;;;12.90;11.20;;;22.80;99.90;;;;;;5079087;28;20504;-78
2021/09/26 11:56:22;;;;;;;13.18;11.43;;;22.70;99.90;;;;;;5064168;28;20016;-78
2021/09/26 11:58:52;;;;;;;12.63;10.77;;;22.70;99.90;;;;;;5076232;28;20121;-78
2021/09/26 12:01:36;;;;;;;11.60;10.40;;;22.70;99.90;;;;;;5068890;28;20095;-77
2021/09/26 12:04:24;;;;;;;13.10;11.13;;;22.80;99.90;;;;;;5078743;28;20048;-79
2021/09/26 12:06:57;;;;;;;13.35;11.55;;;22.80;99.90;;;;;;5065811;28;20028;-78
2021/09/26 12:09:43;;;;;;;13.27;11.80;;;22.70;99.90;;;;;;5071612;28;20020;-78
2021/09/26 12:12:10;;;;;;;15.63;11.25;;;22.70;99.90;;;;;;5073672;28;20020;-79
2021/09/26 12:14:37;;;;;;;13.35;11.02;;;22.70;99.90;;;;;;5070984;28;20381;-79
2021/09/26 12:17:05;;;;;;;12.52;10.63;;;22.70;99.90;;;;;;5068821;28;20384;-78
2021/09/26 12:19:33;;;;;;;15.02;10.18;;;22.80;99.90;;;;;;5067180;28;20103;-78
2021/09/26 12:22:08;;;;;;;13.88;10.25;;;22.70;99.90;;;;;;5068883;28;20028;-79
2021/09/26 12:24:53;;;;;;;11.73;10.25;;;22.70;99.90;;;;;;5066047;28;20032;-77
2021/09/26 12:27:31;;;;;;;14.18;11.18;;;22.80;99.90;;;;;;5070231;28;20029;-78
2021/09/26 12:30:13;;;;;;;14.02;10.38;;;22.70;99.90;;;;;;5087586;28;20464;-79
2021/09/26 12:32:58;;;;;;;12.35;9.70;;;22.60;99.90;;;;;;5072858;28;20064;-79
2021/09/26 12:35:44;;;;;;;10.90;9.40;;;22.50;99.90;;;;;;5083702;28;20504;-79
2021/09/26 12:38:24;;;;;;;11.32;9.40;;;22.50;99.90;;;;;;5072486;28;20035;-79